Harold, Kentucky
Current Conditions -  °F | °C
As of 8:15 PM on Saturday 22 Nov 2014 (Local Time) from KPBX Reporting Station
Broken Clouds Broken Clouds  
Wind Chill: 52°   Ceiling: 9000
Heat Index: 52°   Visibility: 10mi
Dew Point: 22°   Wind: 6mph
Humidity: 31%   Direction: 170°S
Pressure: 30.18"   Gusts: NA
Location:  37.54°N, 82.63°W
Report Text: KPBX 230115Z AUTO 17005KT 10SM BKN090 11/M05 A3018 RMK AO2 T01131055
Loading
Personal Weather Stations






























Interactive Weather Map New forecast layout! Learn more

10-Day Weather Forecast

Advertisements
Track Severe Weather on mobile